createdAt,value
2016-08-01T00:00:28.672Z,956.33
2016-08-01T00:01:32.032Z,956.41
2016-08-01T00:02:31.723Z,956.42
2016-08-01T00:03:32.173Z,956.45
2016-08-01T00:04:35.248Z,956.49
2016-08-01T00:05:27.286Z,956.43
2016-08-01T00:06:37.173Z,956.52
2016-08-01T00:07:34.454Z,956.49
2016-08-01T00:08:35.031Z,956.49
2016-08-01T00:09:38.081Z,956.51
2016-08-01T00:10:28.051Z,956.50
2016-08-01T00:11:23.412Z,956.51
2016-08-01T00:12:31.970Z,956.51
2016-08-01T00:13:34.399Z,956.53
2016-08-01T00:14:27.646Z,956.48
2016-08-01T00:15:30.727Z,956.49
2016-08-01T00:16:37.668Z,956.47
2016-08-01T00:17:31.917Z,956.47
2016-08-01T00:19:32.095Z,956.46
2016-08-01T00:20:28.513Z,956.56
2016-08-01T00:21:32.239Z,956.51
2016-08-01T00:22:30.936Z,956.52
2016-08-01T00:23:32.248Z,956.57
2016-08-01T00:24:33.575Z,956.60
2016-08-01T00:25:33.451Z,956.59
2016-08-01T00:26:36.935Z,956.60
2016-08-01T00:27:33.828Z,956.62
2016-08-01T00:28:33.705Z,956.62
2016-08-01T00:29:29.755Z,956.65
2016-08-01T00:30:32.782Z,956.67
2016-08-01T00:31:29.515Z,956.64
2016-08-01T00:32:36.209Z,956.66
2016-08-01T00:34:38.844Z,956.68
2016-08-01T00:35:34.236Z,956.69
2016-08-01T00:36:29.730Z,956.71
2016-08-01T00:37:31.346Z,956.76
2016-08-01T00:38:29.103Z,956.75
2016-08-01T00:39:31.267Z,956.78
2016-08-01T00:40:31.401Z,956.78
2016-08-01T00:41:33.260Z,956.75
2016-08-01T00:42:40.032Z,956.74
2016-08-01T00:43:31.331Z,956.77
2016-08-01T00:44:12.441Z,956.71
2016-08-01T00:45:34.247Z,956.74
2016-08-01T00:46:29.154Z,956.72
2016-08-01T00:47:31.371Z,956.70
2016-08-01T00:49:33.335Z,956.69
2016-08-01T00:50:37.587Z,956.69
2016-08-01T00:51:32.303Z,956.65
2016-08-01T00:52:33.216Z,956.60
2016-08-01T00:53:23.034Z,956.67
2016-08-01T00:54:34.046Z,956.66
2016-08-01T00:55:36.432Z,956.67
2016-08-01T00:56:20.884Z,956.67
2016-08-01T00:57:27.355Z,956.69
2016-08-01T00:58:32.029Z,956.74
2016-08-01T00:59:38.811Z,956.67
2016-08-01T01:00:30.380Z,956.64
2016-08-01T01:01:31.704Z,956.68
2016-08-01T01:02:33.582Z,956.73
2016-08-01T01:03:22.608Z,956.66
2016-08-01T01:04:32.843Z,956.73
2016-08-01T01:05:27.713Z,956.70
2016-08-01T01:06:33.098Z,956.68
2016-08-01T01:07:46.120Z,956.68
2016-08-01T01:08:19.960Z,956.68
2016-08-01T01:09:22.643Z,956.70
2016-08-01T01:10:31.795Z,956.68
2016-08-01T01:11:21.476Z,956.71
2016-08-01T01:12:31.723Z,956.72
2016-08-01T01:13:50.284Z,956.67
2016-08-01T01:14:29.362Z,956.74
2016-08-01T01:15:26.947Z,956.74
2016-08-01T01:16:31.331Z,956.79
2016-08-01T01:17:32.295Z,956.79
2016-08-01T01:18:20.834Z,956.77
2016-08-01T01:19:31.148Z,956.80
2016-08-01T01:20:34.244Z,956.74
2016-08-01T01:21:32.487Z,956.71
2016-08-01T01:22:30.657Z,956.68
2016-08-01T01:23:32.390Z,956.66
2016-08-01T01:24:32.591Z,956.61
2016-08-01T01:25:51.005Z,956.61
2016-08-01T01:26:35.659Z,956.61
2016-08-01T01:27:33.086Z,956.62
2016-08-01T01:28:32.032Z,956.63
2016-08-01T01:29:34.133Z,956.59
2016-08-01T01:30:31.932Z,956.61
2016-08-01T01:31:33.415Z,956.60
2016-08-01T01:32:31.671Z,956.55
2016-08-01T01:34:32.106Z,956.62
2016-08-01T01:35:45.395Z,956.56
2016-08-01T01:36:31.794Z,956.61
2016-08-01T01:37:33.034Z,956.63
2016-08-01T01:38:31.406Z,956.65
2016-08-01T01:39:37.480Z,956.62
2016-08-01T01:40:34.414Z,956.61
2016-08-01T01:41:35.624Z,956.58
2016-08-01T01:42:31.356Z,956.59
2016-08-01T01:43:36.323Z,956.59
2016-08-01T01:44:33.236Z,956.58
2016-08-01T01:45:37.317Z,956.60
2016-08-01T01:46:31.089Z,956.59
2016-08-01T01:47:25.605Z,956.57
2016-08-01T01:48:33.425Z,956.59
2016-08-01T01:49:38.321Z,956.64
2016-08-01T01:50:28.388Z,956.65
2016-08-01T01:51:31.597Z,956.58
2016-08-01T01:52:34.323Z,956.59
2016-08-01T01:53:32.361Z,956.60
2016-08-01T01:54:30.108Z,956.65
2016-08-01T01:55:35.580Z,956.62
2016-08-01T01:56:30.376Z,956.67
2016-08-01T01:57:31.160Z,956.65
2016-08-01T01:58:31.964Z,956.68
2016-08-01T01:59:34.344Z,956.65
2016-08-01T02:00:33.746Z,956.66
2016-08-01T02:01:53.154Z,956.70
2016-08-01T02:02:31.862Z,956.71
2016-08-01T02:03:30.386Z,956.68
2016-08-01T02:04:29.431Z,956.73
2016-08-01T02:05:38.107Z,956.71
2016-08-01T02:06:39.365Z,956.68
2016-08-01T02:07:31.679Z,956.73
2016-08-01T02:08:32.752Z,956.72
2016-08-01T02:09:32.114Z,956.76
2016-08-01T02:10:38.965Z,956.71
2016-08-01T02:11:34.188Z,956.68
2016-08-01T02:12:12.208Z,956.70
2016-08-01T02:13:31.927Z,956.69
2016-08-01T02:14:34.883Z,956.73
2016-08-01T02:15:31.890Z,956.72
2016-08-01T02:16:33.358Z,956.74
2016-08-01T02:17:37.292Z,956.74
2016-08-01T02:18:32.404Z,956.74
2016-08-01T02:19:37.446Z,956.75
2016-08-01T02:20:32.604Z,956.78
2016-08-01T02:21:38.264Z,956.81
2016-08-01T02:22:28.182Z,956.83
2016-08-01T02:23:30.413Z,956.84
2016-08-01T02:24:31.540Z,956.92
2016-08-01T02:25:33.344Z,956.90
2016-08-01T02:26:33.587Z,956.96
2016-08-01T02:27:44.270Z,956.94
2016-08-01T02:28:32.917Z,956.93
2016-08-01T02:29:31.537Z,956.96
2016-08-01T02:30:32.304Z,957.02
2016-08-01T02:31:32.514Z,957.00
2016-08-01T02:32:34.528Z,957.04
2016-08-01T02:33:28.699Z,957.02
2016-08-01T02:34:35.566Z,957.04
2016-08-01T02:35:32.204Z,957.09
2016-08-01T02:36:33.765Z,957.09
2016-08-01T02:37:38.729Z,957.14
2016-08-01T02:38:32.972Z,957.16
2016-08-01T02:39:33.044Z,957.19
2016-08-01T02:40:31.793Z,957.20
2016-08-01T02:41:36.586Z,957.21
2016-08-01T02:42:31.665Z,957.24
2016-08-01T02:43:30.116Z,957.22
2016-08-01T02:44:28.657Z,957.27
2016-08-01T02:45:30.009Z,957.28
2016-08-01T02:46:30.205Z,957.26
2016-08-01T02:47:38.473Z,957.29
2016-08-01T02:48:31.935Z,957.34
2016-08-01T02:49:38.946Z,957.36
2016-08-01T02:50:35.119Z,957.36
2016-08-01T02:51:31.886Z,957.38
2016-08-01T02:52:27.291Z,957.38
2016-08-01T02:53:35.843Z,957.39
2016-08-01T02:54:31.928Z,957.38
2016-08-01T02:55:37.545Z,957.37
2016-08-01T02:56:32.543Z,957.38
2016-08-01T02:57:50.132Z,957.38
2016-08-01T02:58:30.465Z,957.40
2016-08-01T02:59:35.424Z,957.41
2016-08-01T03:00:31.728Z,957.43
2016-08-01T03:01:31.933Z,957.41
2016-08-01T03:02:31.035Z,957.46
2016-08-01T03:03:34.357Z,957.43
2016-08-01T03:04:26.088Z,957.43
2016-08-01T03:05:36.583Z,957.42
2016-08-01T03:06:39.381Z,957.45
2016-08-01T03:07:32.002Z,957.44
2016-08-01T03:08:30.176Z,957.45
2016-08-01T03:09:33.245Z,957.50
2016-08-01T03:10:31.755Z,957.45
2016-08-01T03:11:28.598Z,957.47
2016-08-01T03:12:37.589Z,957.47
2016-08-01T03:13:34.906Z,957.46
2016-08-01T03:14:34.366Z,957.44
2016-08-01T03:15:33.450Z,957.45
2016-08-01T03:16:33.834Z,957.42
2016-08-01T03:17:31.592Z,957.46
2016-08-01T03:18:33.968Z,957.49
2016-08-01T03:19:33.416Z,957.47
2016-08-01T03:20:30.800Z,957.47
2016-08-01T03:21:32.616Z,957.47
2016-08-01T03:22:33.436Z,957.44
2016-08-01T03:23:33.369Z,957.48
2016-08-01T03:24:32.011Z,957.46
2016-08-01T03:25:31.955Z,957.44
2016-08-01T03:26:36.040Z,957.41
2016-08-01T03:27:27.207Z,957.40
2016-08-01T03:28:30.867Z,957.43
2016-08-01T03:29:37.216Z,957.42
2016-08-01T03:30:36.001Z,957.44
2016-08-01T03:31:30.205Z,957.45
2016-08-01T03:32:33.618Z,957.45
2016-08-01T03:33:33.669Z,957.45
2016-08-01T03:34:31.068Z,957.47
2016-08-01T03:35:29.978Z,957.42
2016-08-01T03:36:31.045Z,957.44
2016-08-01T03:37:33.025Z,957.43
2016-08-01T03:38:29.160Z,957.51
2016-08-01T03:39:39.993Z,957.47
2016-08-01T03:40:29.758Z,957.47
2016-08-01T03:41:29.991Z,957.47
2016-08-01T03:42:30.198Z,957.49
2016-08-01T03:43:32.417Z,957.50
2016-08-01T03:44:32.003Z,957.50
2016-08-01T03:45:34.719Z,957.47
2016-08-01T03:46:30.495Z,957.48
2016-08-01T03:47:30.226Z,957.55
2016-08-01T03:48:32.251Z,957.52
2016-08-01T03:49:31.369Z,957.52
2016-08-01T03:50:32.015Z,957.46
2016-08-01T03:51:30.806Z,957.47
2016-08-01T03:52:31.478Z,957.51
2016-08-01T03:53:33.488Z,957.48
2016-08-01T03:54:30.476Z,957.51
2016-08-01T03:55:31.768Z,957.52
2016-08-01T03:56:32.637Z,957.49
2016-08-01T03:57:33.013Z,957.51
2016-08-01T03:58:32.363Z,957.56
2016-08-01T03:59:27.399Z,957.55
2016-08-01T04:00:36.774Z,957.58
2016-08-01T04:01:34.193Z,957.59
2016-08-01T04:02:26.906Z,957.60
2016-08-01T04:03:38.305Z,957.56
2016-08-01T04:04:38.612Z,957.57
2016-08-01T04:05:28.464Z,957.61
2016-08-01T04:06:34.246Z,957.55
2016-08-01T04:07:49.557Z,957.57
2016-08-01T04:08:42.395Z,957.59
2016-08-01T04:09:32.944Z,957.62
2016-08-01T04:10:36.637Z,957.58
2016-08-01T04:11:32.390Z,957.60
2016-08-01T04:12:32.353Z,957.61
2016-08-01T04:13:31.445Z,957.64
2016-08-01T04:14:33.274Z,957.67
2016-08-01T04:15:31.669Z,957.62
2016-08-01T04:16:33.367Z,957.63
2016-08-01T04:17:34.541Z,957.69
2016-08-01T04:18:31.559Z,957.72
2016-08-01T04:19:31.998Z,957.66
2016-08-01T04:20:32.092Z,957.67
2016-08-01T04:21:31.768Z,957.68
2016-08-01T04:22:31.733Z,957.67
2016-08-01T04:23:38.263Z,957.70
2016-08-01T04:24:33.575Z,957.67
2016-08-01T04:26:06.028Z,957.71
2016-08-01T04:26:30.345Z,957.72
2016-08-01T04:27:32.611Z,957.70
2016-08-01T04:28:39.004Z,957.75
2016-08-01T04:29:33.025Z,957.73
2016-08-01T04:30:41.814Z,957.76
2016-08-01T04:31:37.878Z,957.78
2016-08-01T04:32:30.585Z,957.75
2016-08-01T04:33:36.794Z,957.79
2016-08-01T04:34:32.773Z,957.73
2016-08-01T04:35:33.613Z,957.73
2016-08-01T04:36:32.065Z,957.78
2016-08-01T04:37:33.443Z,957.78
2016-08-01T04:38:29.415Z,957.75
2016-08-01T04:39:31.994Z,957.77
2016-08-01T04:40:33.813Z,957.77
2016-08-01T04:41:31.741Z,957.77
2016-08-01T04:42:31.084Z,957.75
2016-08-01T04:43:33.034Z,957.81
2016-08-01T04:44:30.363Z,957.82
2016-08-01T04:45:33.392Z,957.83
2016-08-01T04:46:27.105Z,957.85
2016-08-01T04:47:29.389Z,957.87
2016-08-01T04:48:39.734Z,957.88
2016-08-01T04:49:35.250Z,957.85
2016-08-01T04:50:32.554Z,957.88
2016-08-01T04:51:38.805Z,957.87
2016-08-01T04:52:26.690Z,957.90
2016-08-01T04:53:30.586Z,957.88
2016-08-01T04:54:30.235Z,957.86
2016-08-01T04:55:31.309Z,957.91
2016-08-01T04:56:34.141Z,957.89
2016-08-01T04:57:33.239Z,957.90
2016-08-01T04:58:32.031Z,957.91
2016-08-01T04:59:26.258Z,957.95
2016-08-01T05:00:32.107Z,957.97
2016-08-01T05:01:31.625Z,957.96
2016-08-01T05:02:36.163Z,957.97
2016-08-01T05:03:24.200Z,958.02
2016-08-01T05:04:31.380Z,958.04
2016-08-01T05:05:30.634Z,958.08
2016-08-01T05:06:33.199Z,958.08
2016-08-01T05:07:32.142Z,958.08
2016-08-01T05:08:31.080Z,958.12
2016-08-01T05:09:28.267Z,958.14
2016-08-01T05:10:34.342Z,958.12
2016-08-01T05:11:34.780Z,958.15
2016-08-01T05:12:31.889Z,958.17
2016-08-01T05:13:34.030Z,958.18
2016-08-01T05:14:31.648Z,958.16
2016-08-01T05:15:26.937Z,958.20
2016-08-01T05:16:30.599Z,958.24
2016-08-01T05:17:31.862Z,958.24
2016-08-01T05:18:31.479Z,958.25
2016-08-01T05:20:29.566Z,958.27
2016-08-01T05:21:49.303Z,958.23
2016-08-01T05:22:33.627Z,958.21
2016-08-01T05:23:32.713Z,958.25
2016-08-01T05:24:32.126Z,958.23
2016-08-01T05:25:33.254Z,958.23
2016-08-01T05:26:31.124Z,958.20
2016-08-01T05:27:31.820Z,958.20
2016-08-01T05:28:37.287Z,958.22
2016-08-01T05:29:33.607Z,958.22
2016-08-01T05:30:32.908Z,958.23
2016-08-01T05:31:35.859Z,958.24
2016-08-01T05:32:38.834Z,958.25
2016-08-01T05:33:31.994Z,958.23
2016-08-01T05:34:33.724Z,958.25
2016-08-01T05:35:32.148Z,958.28
2016-08-01T05:36:32.160Z,958.27
2016-08-01T05:37:36.486Z,958.23
2016-08-01T05:38:34.227Z,958.20
2016-08-01T05:39:37.164Z,958.27
2016-08-01T05:40:31.376Z,958.25
2016-08-01T05:41:27.815Z,958.28
2016-08-01T05:42:36.302Z,958.29
2016-08-01T05:43:31.784Z,958.31
2016-08-01T05:44:32.388Z,958.35
2016-08-01T05:45:30.655Z,958.31
2016-08-01T05:46:35.363Z,958.32
2016-08-01T05:47:31.964Z,958.35
2016-08-01T05:48:33.428Z,958.32
2016-08-01T05:50:30.567Z,958.32
2016-08-01T05:51:37.715Z,958.37
2016-08-01T05:52:34.964Z,958.33
2016-08-01T05:53:32.015Z,958.32
2016-08-01T05:54:34.388Z,958.30
2016-08-01T05:55:24.175Z,958.35
2016-08-01T05:56:33.592Z,958.34
2016-08-01T05:57:30.369Z,958.37
2016-08-01T05:58:33.343Z,958.38
2016-08-01T05:59:33.589Z,958.34
2016-08-01T06:00:32.185Z,958.38
2016-08-01T06:01:32.566Z,958.40
2016-08-01T06:02:37.809Z,958.40
2016-08-01T06:03:37.425Z,958.37
2016-08-01T06:04:36.883Z,958.41
2016-08-01T06:05:33.833Z,958.41
2016-08-01T06:06:26.576Z,958.39
2016-08-01T06:07:34.421Z,958.39
2016-08-01T06:08:28.427Z,958.41
2016-08-01T06:09:30.629Z,958.39
2016-08-01T06:10:30.395Z,958.42
2016-08-01T06:11:26.522Z,958.39
2016-08-01T06:12:30.401Z,958.42
2016-08-01T06:13:27.310Z,958.43
2016-08-01T06:14:33.418Z,958.47
2016-08-01T06:15:31.937Z,958.46
2016-08-01T06:16:33.337Z,958.50
2016-08-01T06:17:32.076Z,958.46
2016-08-01T06:18:32.133Z,958.49
2016-08-01T06:20:33.267Z,958.48
2016-08-01T06:21:48.002Z,958.49
2016-08-01T06:22:39.614Z,958.46
2016-08-01T06:23:51.283Z,958.49
2016-08-01T06:24:34.329Z,958.50
2016-08-01T06:25:40.115Z,958.41
2016-08-01T06:26:27.994Z,958.46
2016-08-01T06:27:33.355Z,958.41
2016-08-01T06:28:40.136Z,958.47
2016-08-01T06:29:39.122Z,958.43
2016-08-01T06:30:34.684Z,958.42
2016-08-01T06:31:33.902Z,958.43
2016-08-01T06:32:49.142Z,958.42
2016-08-01T06:33:47.734Z,958.42
2016-08-01T06:34:39.701Z,958.39
2016-08-01T06:35:37.549Z,958.38
2016-08-01T06:36:34.382Z,958.39
2016-08-01T06:37:37.324Z,958.43
2016-08-01T06:38:41.581Z,958.41
2016-08-01T06:39:49.740Z,958.35
2016-08-01T06:40:34.463Z,958.35
2016-08-01T06:41:53.707Z,958.32
2016-08-01T06:42:41.943Z,958.36
2016-08-01T06:43:40.485Z,958.40
2016-08-01T06:44:33.462Z,958.36
2016-08-01T06:45:33.661Z,958.39
2016-08-01T06:46:32.815Z,958.36
2016-08-01T06:47:36.765Z,958.36
2016-08-01T06:48:38.380Z,958.30
2016-08-01T06:50:33.055Z,958.30
2016-08-01T06:51:30.765Z,958.27
2016-08-01T06:52:15.140Z,958.33
2016-08-01T06:53:34.272Z,958.29
2016-08-01T06:54:40.448Z,958.26
2016-08-01T06:55:38.500Z,958.30
2016-08-01T06:56:38.047Z,958.30
2016-08-01T06:57:31.963Z,958.30
2016-08-01T06:58:30.766Z,958.30
2016-08-01T06:59:34.357Z,958.28
2016-08-01T07:00:27.650Z,958.28
2016-08-01T07:01:49.868Z,958.30
2016-08-01T07:02:27.698Z,958.29
2016-08-01T07:03:31.467Z,958.29
2016-08-01T07:04:40.809Z,958.31
2016-08-01T07:05:31.033Z,958.30
2016-08-01T07:06:33.955Z,958.31
2016-08-01T07:07:32.200Z,958.26
2016-08-01T07:08:41.605Z,958.28
2016-08-01T07:09:30.535Z,958.31
2016-08-01T07:10:30.484Z,958.29
2016-08-01T07:11:33.489Z,958.25
2016-08-01T07:12:27.137Z,958.26
2016-08-01T07:13:34.512Z,958.29
2016-08-01T07:14:38.763Z,958.27
2016-08-01T07:15:30.120Z,958.25
2016-08-01T07:16:42.031Z,958.25
2016-08-01T07:17:14.209Z,958.23
2016-08-01T07:18:44.838Z,958.26
2016-08-01T07:19:30.499Z,958.29
2016-08-01T07:20:34.745Z,958.25
2016-08-01T07:21:30.796Z,958.23
2016-08-01T07:22:31.400Z,958.26
2016-08-01T07:23:29.360Z,958.29
2016-08-01T07:24:33.858Z,958.23
2016-08-01T07:25:40.233Z,958.27
2016-08-01T07:26:45.856Z,958.25
2016-08-01T07:27:39.812Z,958.23
2016-08-01T07:28:51.670Z,958.29
2016-08-01T07:29:15.140Z,958.29
2016-08-01T07:30:33.138Z,958.27
2016-08-01T07:31:30.534Z,958.28
2016-08-01T07:32:32.739Z,958.28
2016-08-01T07:33:38.948Z,958.30
2016-08-01T07:34:34.314Z,958.32
2016-08-01T07:35:31.489Z,958.29
2016-08-01T07:36:39.468Z,958.35
2016-08-01T07:37:39.703Z,958.35
2016-08-01T07:38:40.923Z,958.38
2016-08-01T07:39:34.007Z,958.42
2016-08-01T07:40:36.794Z,958.44
2016-08-01T07:41:34.927Z,958.43
2016-08-01T07:42:33.305Z,958.45
2016-08-01T07:43:31.549Z,958.44
2016-08-01T07:44:33.295Z,958.43
2016-08-01T07:45:32.394Z,958.48
2016-08-01T07:46:30.556Z,958.49
2016-08-01T07:47:38.736Z,958.51
2016-08-01T07:48:33.867Z,958.51
2016-08-01T07:49:31.585Z,958.47
2016-08-01T07:50:43.263Z,958.48
2016-08-01T07:51:41.158Z,958.50
2016-08-01T07:52:41.004Z,958.53
2016-08-01T07:53:37.536Z,958.55
2016-08-01T07:54:32.778Z,958.55
2016-08-01T07:55:30.867Z,958.56
2016-08-01T07:56:33.806Z,958.55
2016-08-01T07:57:24.227Z,958.58
2016-08-01T07:58:39.267Z,958.61
2016-08-01T07:59:33.847Z,958.58
2016-08-01T08:00:36.370Z,958.62
2016-08-01T08:01:39.825Z,958.64
2016-08-01T08:02:37.646Z,958.60
2016-08-01T08:03:39.252Z,958.63
2016-08-01T08:04:32.016Z,958.62
2016-08-01T08:05:32.129Z,958.60
2016-08-01T08:06:38.082Z,958.59
2016-08-01T08:07:33.065Z,958.61
2016-08-01T08:08:37.076Z,958.63
2016-08-01T08:09:38.589Z,958.64
2016-08-01T08:10:21.876Z,958.63
2016-08-01T08:11:27.752Z,958.68
2016-08-01T08:12:29.085Z,958.66
2016-08-01T08:13:40.524Z,958.69
2016-08-01T08:14:31.441Z,958.63
2016-08-01T08:15:25.360Z,958.71
2016-08-01T08:16:27.259Z,958.68
2016-08-01T08:17:31.470Z,958.70
2016-08-01T08:18:39.197Z,958.71
2016-08-01T08:19:57.942Z,958.69
2016-08-01T08:20:39.618Z,958.64
2016-08-01T08:21:13.422Z,958.65
2016-08-01T08:22:32.637Z,958.65
2016-08-01T08:23:20.852Z,958.66
2016-08-01T08:24:33.347Z,958.64
2016-08-01T08:25:33.305Z,958.58
2016-08-01T08:26:32.891Z,958.58
2016-08-01T08:27:32.610Z,958.60
2016-08-01T08:28:33.178Z,958.61
2016-08-01T08:29:50.939Z,958.62
2016-08-01T08:30:40.083Z,958.57
2016-08-01T08:31:41.621Z,958.59
2016-08-01T08:32:40.179Z,958.60
2016-08-01T08:33:37.833Z,958.63
2016-08-01T08:34:20.039Z,958.64
2016-08-01T08:35:30.881Z,958.60
2016-08-01T08:36:12.476Z,958.61
2016-08-01T08:37:36.570Z,958.60
2016-08-01T08:38:37.225Z,958.57
2016-08-01T08:39:52.866Z,958.62
2016-08-01T08:40:37.635Z,958.57
2016-08-01T08:41:32.829Z,958.61
2016-08-01T08:42:32.397Z,958.58
2016-08-01T08:43:50.824Z,958.58
2016-08-01T08:44:31.190Z,958.58
2016-08-01T08:45:34.830Z,958.63
2016-08-01T08:46:32.442Z,958.58
2016-08-01T08:47:30.258Z,958.61
2016-08-01T08:48:32.272Z,958.61
2016-08-01T08:49:31.915Z,958.57
2016-08-01T08:50:29.921Z,958.56
2016-08-01T08:51:38.432Z,958.57
2016-08-01T08:52:34.761Z,958.53
2016-08-01T08:53:34.364Z,958.52
2016-08-01T08:54:35.866Z,958.55
2016-08-01T08:55:34.126Z,958.49
2016-08-01T08:56:33.905Z,958.56
2016-08-01T08:57:26.619Z,958.52
2016-08-01T08:58:32.183Z,958.51
2016-08-01T08:59:22.369Z,958.52
2016-08-01T09:00:21.104Z,958.51
2016-08-01T09:01:27.737Z,958.51
2016-08-01T09:02:34.005Z,958.53
2016-08-01T09:03:33.407Z,958.51
2016-08-01T09:04:36.842Z,958.51
2016-08-01T09:05:36.597Z,958.49
2016-08-01T09:06:40.179Z,958.48
2016-08-01T09:07:34.927Z,958.47
2016-08-01T09:08:21.716Z,958.47
2016-08-01T09:09:36.219Z,958.46
2016-08-01T09:10:37.751Z,958.48
2016-08-01T09:11:19.470Z,958.45
2016-08-01T09:12:12.237Z,958.48
2016-08-01T09:13:31.983Z,958.53
2016-08-01T09:14:38.394Z,958.42
2016-08-01T09:15:34.917Z,958.46
2016-08-01T09:16:39.371Z,958.41
2016-08-01T09:17:33.932Z,958.45
2016-08-01T09:18:35.148Z,958.41
2016-08-01T09:19:28.573Z,958.44
2016-08-01T09:21:32.339Z,958.46
2016-08-01T09:22:32.236Z,958.46
2016-08-01T09:23:31.371Z,958.47
2016-08-01T09:24:33.828Z,958.44
2016-08-01T09:25:40.599Z,958.44
2016-08-01T09:26:38.230Z,958.44
2016-08-01T09:27:33.698Z,958.43
2016-08-01T09:28:33.659Z,958.44
2016-08-01T09:29:22.267Z,958.46
2016-08-01T09:30:34.185Z,958.47
2016-08-01T09:31:34.186Z,958.46
2016-08-01T09:32:32.178Z,958.42
2016-08-01T09:33:32.842Z,958.42
2016-08-01T09:34:18.643Z,958.42
2016-08-01T09:35:12.960Z,958.43
2016-08-01T09:36:32.234Z,958.41
2016-08-01T09:37:12.811Z,958.48
2016-08-01T09:38:39.112Z,958.42
2016-08-01T09:39:19.144Z,958.48
2016-08-01T09:40:34.361Z,958.53
2016-08-01T09:41:33.858Z,958.52
2016-08-01T09:42:31.632Z,958.49
2016-08-01T09:43:37.906Z,958.49
2016-08-01T09:44:32.698Z,958.50
2016-08-01T09:45:30.772Z,958.52
2016-08-01T09:46:27.837Z,958.49
2016-08-01T09:47:37.855Z,958.52
2016-08-01T09:48:34.158Z,958.48
2016-08-01T09:49:27.325Z,958.50
2016-08-01T09:50:17.667Z,958.49
2016-08-01T09:51:40.049Z,958.51
2016-08-01T09:52:38.893Z,958.45
2016-08-01T09:53:45.580Z,958.49
2016-08-01T09:54:27.504Z,958.50
2016-08-01T09:55:31.725Z,958.51
2016-08-01T09:56:33.172Z,958.51
2016-08-01T09:57:15.573Z,958.54
2016-08-01T09:58:20.612Z,958.52
2016-08-01T09:59:45.397Z,958.51
2016-08-01T10:00:15.616Z,958.47
2016-08-01T10:01:30.792Z,958.52
2016-08-01T10:02:33.537Z,958.57
2016-08-01T10:03:38.929Z,958.54
2016-08-01T10:04:28.407Z,958.58
2016-08-01T10:05:12.250Z,958.67
2016-08-01T10:06:12.378Z,958.65
2016-08-01T10:07:38.176Z,958.68
2016-08-01T10:08:32.153Z,958.65
2016-08-01T10:09:34.605Z,958.61
2016-08-01T10:10:39.307Z,958.66
2016-08-01T10:11:48.112Z,958.62
2016-08-01T10:12:32.945Z,958.64
2016-08-01T10:13:21.799Z,958.62
2016-08-01T10:14:33.976Z,958.61
2016-08-01T10:15:22.153Z,958.61
2016-08-01T10:16:34.223Z,958.59
2016-08-01T10:17:37.193Z,958.60
2016-08-01T10:18:29.287Z,958.64
2016-08-01T10:19:31.050Z,958.61
2016-08-01T10:20:36.523Z,958.63
2016-08-01T10:21:38.868Z,958.62
2016-08-01T10:22:35.704Z,958.65
2016-08-01T10:23:30.014Z,958.63
2016-08-01T10:24:34.256Z,958.65
2016-08-01T10:25:38.838Z,958.67
2016-08-01T10:26:38.259Z,958.66
2016-08-01T10:27:31.893Z,958.66
2016-08-01T10:28:28.605Z,958.64
2016-08-01T10:29:13.838Z,958.70
2016-08-01T10:30:14.828Z,958.68
2016-08-01T10:31:31.150Z,958.62
2016-08-01T10:32:20.235Z,958.63
2016-08-01T10:33:15.186Z,958.59
2016-08-01T10:34:33.470Z,958.64
2016-08-01T10:35:34.117Z,958.59
2016-08-01T10:36:47.934Z,958.61
2016-08-01T10:37:31.051Z,958.58
2016-08-01T10:38:42.857Z,958.65
2016-08-01T10:39:39.174Z,958.58
2016-08-01T10:40:15.972Z,958.62
2016-08-01T10:41:15.561Z,958.62
2016-08-01T10:42:19.736Z,958.62
2016-08-01T10:43:14.806Z,958.35
2016-08-01T10:44:17.328Z,958.59
2016-08-01T10:45:16.691Z,958.60
2016-08-01T10:46:18.810Z,958.61
2016-08-01T10:47:15.719Z,958.57
2016-08-01T10:48:18.875Z,958.56
2016-08-01T10:49:16.019Z,958.56
2016-08-01T10:50:16.146Z,958.59
2016-08-01T10:51:17.660Z,958.59
2016-08-01T10:52:18.403Z,958.61
2016-08-01T10:53:17.893Z,958.57
2016-08-01T10:54:13.695Z,958.56
2016-08-01T10:55:20.973Z,958.60
2016-08-01T10:56:15.684Z,958.63
2016-08-01T10:57:16.642Z,958.61
2016-08-01T10:58:16.539Z,958.58
2016-08-01T10:59:17.234Z,958.57
2016-08-01T11:00:17.106Z,958.53
2016-08-01T11:01:16.901Z,958.52
2016-08-01T11:02:16.254Z,958.55
2016-08-01T11:03:16.926Z,958.48
2016-08-01T11:04:15.924Z,958.53
2016-08-01T11:05:15.461Z,958.53
2016-08-01T11:06:16.310Z,958.47
2016-08-01T11:07:16.091Z,958.51
2016-08-01T11:08:18.182Z,958.46
2016-08-01T11:09:17.781Z,958.47
2016-08-01T11:10:15.132Z,958.51
2016-08-01T11:11:17.322Z,958.55
2016-08-01T11:12:17.670Z,958.50
2016-08-01T11:13:14.843Z,958.47
2016-08-01T11:14:15.667Z,958.48
2016-08-01T11:15:15.470Z,958.41
2016-08-01T11:16:16.702Z,958.41
2016-08-01T11:17:16.503Z,958.40
2016-08-01T11:18:16.849Z,958.44
2016-08-01T11:19:15.756Z,958.42
2016-08-01T11:20:16.274Z,958.37
2016-08-01T11:21:15.997Z,958.37
2016-08-01T11:22:16.174Z,958.37
2016-08-01T11:23:18.485Z,958.39
2016-08-01T11:24:18.309Z,958.39
2016-08-01T11:25:15.741Z,958.44
2016-08-01T11:26:13.014Z,958.41
2016-08-01T11:27:15.640Z,958.40
2016-08-01T11:28:16.770Z,958.40
2016-08-01T11:29:15.299Z,958.37
2016-08-01T11:30:15.712Z,958.41
2016-08-01T11:31:14.649Z,958.35
2016-08-01T11:32:15.440Z,958.38
2016-08-01T11:33:17.273Z,958.32
2016-08-01T11:34:15.557Z,958.34
2016-08-01T11:35:16.121Z,958.36
2016-08-01T11:36:15.965Z,958.37
2016-08-01T11:37:17.037Z,958.38
2016-08-01T11:38:17.619Z,958.40
2016-08-01T11:39:15.703Z,958.39
2016-08-01T11:40:15.707Z,958.40
2016-08-01T11:41:15.939Z,958.45
2016-08-01T11:42:17.466Z,958.39
2016-08-01T11:43:17.068Z,958.40
2016-08-01T11:44:17.448Z,958.39
2016-08-01T11:45:17.074Z,958.39
2016-08-01T11:46:17.442Z,958.42
2016-08-01T11:47:17.019Z,958.45
2016-08-01T11:48:17.220Z,958.43
2016-08-01T11:49:15.686Z,958.39
2016-08-01T11:50:16.336Z,958.38
2016-08-01T11:51:17.360Z,958.38
2016-08-01T11:52:16.833Z,958.44
2016-08-01T11:53:16.718Z,958.42
2016-08-01T11:54:18.352Z,958.47
2016-08-01T11:55:17.131Z,958.39
2016-08-01T11:56:15.883Z,958.41
2016-08-01T11:57:15.602Z,958.39
2016-08-01T11:58:17.462Z,958.40
2016-08-01T11:59:18.451Z,958.34
2016-08-01T12:00:15.715Z,958.34
2016-08-01T12:01:18.626Z,958.41
2016-08-01T12:02:17.986Z,958.38
2016-08-01T12:03:19.174Z,958.42
2016-08-01T12:04:17.247Z,958.42
2016-08-01T12:05:16.356Z,958.43
2016-08-01T12:06:17.123Z,958.42
2016-08-01T12:07:17.211Z,958.35
2016-08-01T12:08:17.167Z,958.35
2016-08-01T12:09:17.874Z,958.33
2016-08-01T12:10:16.196Z,958.28
2016-08-01T12:11:16.789Z,958.27
2016-08-01T12:12:21.190Z,958.26
2016-08-01T12:13:16.701Z,958.28
2016-08-01T12:14:16.654Z,958.22
2016-08-01T12:15:15.844Z,958.23
2016-08-01T12:16:16.773Z,958.19
2016-08-01T12:17:13.873Z,958.20
2016-08-01T12:18:15.713Z,958.24
2016-08-01T12:19:16.712Z,958.26
2016-08-01T12:20:16.395Z,958.30
2016-08-01T12:21:15.182Z,958.26
2016-08-01T12:22:16.228Z,958.33
2016-08-01T12:23:19.088Z,958.35
2016-08-01T12:24:16.988Z,958.31
2016-08-01T12:25:15.600Z,958.36
2016-08-01T12:26:13.782Z,958.37
2016-08-01T12:27:17.456Z,958.31
2016-08-01T12:28:17.195Z,958.34
2016-08-01T12:29:15.002Z,958.35
2016-08-01T12:30:17.511Z,958.32
2016-08-01T12:31:15.384Z,958.25
2016-08-01T12:32:16.686Z,958.26
2016-08-01T12:33:15.169Z,958.25
2016-08-01T12:34:15.527Z,958.25
2016-08-01T12:35:13.430Z,958.25
2016-08-01T12:36:16.481Z,958.28
2016-08-01T12:37:14.736Z,958.22